Time;durP1;ratioP1;P1;durP2;ratioP2;P2;SDS_P1;SDS_P2;PMS_P1;PMS_P2;Temp;Humidity;BMP_temperature;BMP_pressure;BME280_temperature;BME280_humidity;BME280_pressure;Samples;Min_cycle;Max_cycle;Signal;HPM_P1;HPM_P2
2022/01/23 00:02:20;;;;;;;;;;;;;;;;;;6204738;23;20019;-41
2022/01/23 00:04:46;;;;;;;1.58;1.45;;;;;;;;;;6204392;23;19966;-40
2022/01/23 00:07:14;;;;;;;1.35;1.25;;;;;;;;;;6204711;23;20017;-41
2022/01/23 00:09:39;;;;;;;1.45;1.08;;;;;;;;;;6204447;23;20047;-40
2022/01/23 00:12:09;;;;;;;1.38;1.27;;;;;;;;;;6205457;23;20016;-40
2022/01/23 00:17:21;;;;;;;1.10;1.10;;;;;;;;;;6204110;23;20348;-39
2022/01/23 00:19:57;;;;;;;0.80;0.80;;;;;;;;;;6204025;23;20012;-40
2022/01/23 00:22:27;;;;;;;0.80;0.80;;;;;;;;;;6203203;23;20059;-40
2022/01/23 00:30:31;;;;;;;0.82;0.82;;;;;;;;;;6204669;23;20078;-40
2022/01/23 00:32:58;;;;;;;0.85;0.85;;;;;;;;;;6204858;23;20012;-40
2022/01/23 00:35:23;;;;;;;1.00;1.00;;;;;;;;;;6203801;23;20012;-40
2022/01/23 00:37:49;;;;;;;0.90;0.90;;;;;;;;;;6204211;23;20096;-40
2022/01/23 00:40:14;;;;;;;0.90;0.88;;;;;;;;;;6204061;23;20024;-40
2022/01/23 00:42:40;;;;;;;1.48;1.13;;;;;;;;;;6204160;23;20042;-39
2022/01/23 00:47:39;;;;;;;0.90;0.90;;;;;;;;;;6203590;23;20012;-39
2022/01/23 00:50:05;;;;;;;1.13;0.90;;;;;;;;;;6204027;23;20016;-40
2022/01/23 00:52:30;;;;;;;0.90;0.90;;;;;;;;;;6205460;23;20103;-40
2022/01/23 00:54:55;;;;;;;0.80;0.80;;;;;;;;;;6206314;23;20023;-41
2022/01/23 00:57:21;;;;;;;0.80;0.80;;;;;;;;;;6206823;23;20036;-40
2022/01/23 00:59:46;;;;;;;0.63;0.63;;;;;;;;;;6206337;23;20378;-40
2022/01/23 01:02:11;;;;;;;1.00;1.00;;;;;;;;;;6206458;23;20091;-42
2022/01/23 01:04:37;;;;;;;0.88;0.88;;;;;;;;;;6207233;23;20078;-40
2022/01/23 01:07:02;;;;;;;1.00;1.00;;;;;;;;;;6207185;23;20343;-40
2022/01/23 01:09:29;;;;;;;0.90;0.90;;;;;;;;;;6205944;23;20020;-39
2022/01/23 01:11:58;;;;;;;0.88;0.88;;;;;;;;;;6207216;23;20021;-40
2022/01/23 01:17:16;;;;;;;0.88;0.88;;;;;;;;;;6207265;23;20027;-40
2022/01/23 01:34:07;;;;;;;0.95;0.95;;;;;;;;;;6209478;23;20331;-40
2022/01/23 01:36:02;;;;;;;1.00;1.00;;;;;;;;;;6188217;23;20013;-40
2022/01/23 01:38:27;;;;;;;1.08;1.08;;;;;;;;;;6208288;23;20847;-42
2022/01/23 01:40:53;;;;;;;1.08;1.08;;;;;;;;;;6208681;23;20042;-41
2022/01/23 01:43:18;;;;;;;1.00;1.00;;;;;;;;;;6208235;23;20017;-40
2022/01/23 01:45:44;;;;;;;0.90;0.90;;;;;;;;;;6208776;23;20055;-40
2022/01/23 01:48:10;;;;;;;1.13;1.10;;;;;;;;;;6206394;23;20017;-39
2022/01/23 01:50:42;;;;;;;1.02;0.88;;;;;;;;;;6178372;23;20896;-40
2022/01/23 01:53:09;;;;;;;0.90;0.90;;;;;;;;;;6203052;23;20013;-43
2022/01/23 01:55:43;;;;;;;1.02;1.02;;;;;;;;;;6208601;23;20096;-40
2022/01/23 01:58:32;;;;;;;1.25;1.15;;;;;;;;;;6208569;23;20095;-41
2022/01/23 02:00:57;;;;;;;0.88;0.88;;;;;;;;;;6208775;23;20411;-41
2022/01/23 02:08:32;;;;;;;0.90;0.90;;;;;;;;;;6208331;23;20024;-40
2022/01/23 02:11:05;;;;;;;1.17;1.10;;;;;;;;;;6208361;23;20005;-40
2022/01/23 02:14:13;;;;;;;1.00;1.00;;;;;;;;;;6208330;23;22457;-40
2022/01/23 02:51:46;;;;;;;1.20;1.20;;;;;;;;;;6207957;23;20082;-40
2022/01/23 02:54:30;;;;;;;1.20;1.20;;;;;;;;;;6207899;23;20083;-41
2022/01/23 02:56:58;;;;;;;1.02;1.02;;;;;;;;;;6208424;23;20378;-41
2022/01/23 02:59:27;;;;;;;0.90;0.90;;;;;;;;;;6207525;23;20432;-40
2022/01/23 03:04:24;;;;;;;1.50;1.40;;;;;;;;;;6208524;23;20386;-39
2022/01/23 03:06:58;;;;;;;1.30;1.30;;;;;;;;;;6208244;23;20035;-40
2022/01/23 03:14:43;;;;;;;1.50;1.40;;;;;;;;;;6207350;23;20021;-39
2022/01/23 03:31:07;;;;;;;1.00;1.00;;;;;;;;;;6185270;23;20062;-40
2022/01/23 03:33:33;;;;;;;1.10;1.10;;;;;;;;;;6207426;23;20046;-40
2022/01/23 03:35:58;;;;;;;1.27;1.27;;;;;;;;;;6207725;23;20004;-40
2022/01/23 03:38:23;;;;;;;1.23;1.23;;;;;;;;;;6207249;23;20062;-40
2022/01/23 03:40:49;;;;;;;1.40;1.30;;;;;;;;;;6207258;23;20062;-40
2022/01/23 03:43:15;;;;;;;1.65;1.40;;;;;;;;;;6207437;23;20044;-40
2022/01/23 03:51:02;;;;;;;1.20;1.20;;;;;;;;;;6120381;22;20660;-41
2022/01/23 03:53:28;;;;;;;1.40;1.40;;;;;;;;;;6141197;23;20435;-40
2022/01/23 03:55:54;;;;;;;1.20;1.20;;;;;;;;;;6147091;23;20092;-40
2022/01/23 03:58:19;;;;;;;1.20;1.20;;;;;;;;;;6146868;23;20010;-40
2022/01/23 04:00:44;;;;;;;1.30;1.30;;;;;;;;;;6147735;23;20398;-40
2022/01/23 04:03:09;;;;;;;1.05;1.05;;;;;;;;;;6146630;23;20012;-41
2022/01/23 04:05:35;;;;;;;1.23;1.23;;;;;;;;;;6121075;23;20017;-40
2022/01/23 04:08:00;;;;;;;1.20;1.20;;;;;;;;;;6121073;23;20009;-41
2022/01/23 04:10:26;;;;;;;1.30;1.23;;;;;;;;;;6146532;23;20009;-42
2022/01/23 04:12:56;;;;;;;1.17;1.17;;;;;;;;;;6146200;23;20546;-40
2022/01/23 04:15:32;;;;;;;1.58;1.48;;;;;;;;;;6146598;23;20021;-40
2022/01/23 04:32:19;;;;;;;1.33;1.23;;;;;;;;;;6176473;23;20044;-40
2022/01/23 04:45:45;;;;;;;1.42;1.33;;;;;;;;;;6176884;23;20083;-41
2022/01/23 05:04:28;;;;;;;1.52;1.42;;;;;;;;;;6207102;23;20024;-42
2022/01/23 05:07:00;;;;;;;1.13;1.13;;;;;;;;;;6205267;23;20012;-42
2022/01/23 05:09:26;;;;;;;1.40;1.30;;;;;;;;;;6205929;23;20012;-41
2022/01/23 05:11:55;;;;;;;1.33;1.33;;;;;;;;;;6206994;23;20152;-41
2022/01/23 05:14:28;;;;;;;;;;;;;;;;;;6206791;23;20075;-40
2022/01/23 05:16:53;;;;;;;1.33;1.30;;;;;;;;;;6207224;23;19977;-40
2022/01/23 05:19:18;;;;;;;1.10;1.10;;;;;;;;;;6205999;23;20075;-41
2022/01/23 05:24:12;;;;;;;1.10;1.10;;;;;;;;;;6207591;23;20047;-41
2022/01/23 05:26:43;;;;;;;1.17;1.17;;;;;;;;;;6208726;23;20382;-41
2022/01/23 05:29:09;;;;;;;1.40;1.30;;;;;;;;;;6208312;23;20009;-44
2022/01/23 05:31:34;;;;;;;1.10;1.10;;;;;;;;;;6207790;23;20009;-41
2022/01/23 05:33:59;;;;;;;1.50;1.40;;;;;;;;;;6207132;23;20005;-40
2022/01/23 05:36:25;;;;;;;1.55;1.45;;;;;;;;;;6207285;23;20414;-41
2022/01/23 05:38:50;;;;;;;1.30;1.30;;;;;;;;;;6206677;23;20065;-41
2022/01/23 05:41:15;;;;;;;1.48;1.38;;;;;;;;;;6206890;23;20508;-43
2022/01/23 05:43:40;;;;;;;1.70;1.60;;;;;;;;;;6206411;23;20093;-44
2022/01/23 05:46:06;;;;;;;2.05;1.40;;;;;;;;;;6207020;23;20009;-42
2022/01/23 05:48:31;;;;;;;1.35;1.30;;;;;;;;;;6203948;23;20100;-40
2022/01/23 05:50:56;;;;;;;1.48;1.40;;;;;;;;;;6206312;23;20025;-40
2022/01/23 05:53:22;;;;;;;1.20;1.10;;;;;;;;;;6205876;23;20406;-40
2022/01/23 05:55:47;;;;;;;1.30;1.30;;;;;;;;;;6207187;23;20012;-40
2022/01/23 05:58:12;;;;;;;1.38;1.27;;;;;;;;;;6205773;23;20024;-40
2022/01/23 06:00:37;;;;;;;1.40;1.40;;;;;;;;;;6206414;23;20012;-40
2022/01/23 06:03:03;;;;;;;1.50;1.50;;;;;;;;;;6206707;23;20005;-40
2022/01/23 06:05:28;;;;;;;1.45;1.35;;;;;;;;;;6206154;23;20029;-40
2022/01/23 06:07:53;;;;;;;1.27;1.20;;;;;;;;;;6206695;23;20027;-41
2022/01/23 06:10:22;;;;;;;1.30;1.30;;;;;;;;;;6206276;23;20020;-40
2022/01/23 06:12:48;;;;;;;1.38;1.38;;;;;;;;;;6206577;23;20508;-41
2022/01/23 06:15:13;;;;;;;1.15;1.15;;;;;;;;;;6206602;23;20020;-40
2022/01/23 06:17:39;;;;;;;1.40;1.30;;;;;;;;;;6207292;23;20082;-39
2022/01/23 06:20:07;;;;;;;1.40;1.30;;;;;;;;;;6208842;23;20035;-40
2022/01/23 06:22:32;;;;;;;1.20;1.20;;;;;;;;;;6207434;23;20018;-39
2022/01/23 06:24:57;;;;;;;1.30;1.30;;;;;;;;;;6208887;23;20020;-39
2022/01/23 06:27:22;;;;;;;1.23;1.23;;;;;;;;;;6207536;23;20016;-40
2022/01/23 06:29:48;;;;;;;1.35;1.35;;;;;;;;;;6208875;23;20013;-39
2022/01/23 06:32:13;;;;;;;1.20;1.20;;;;;;;;;;6207079;23;20013;-39
2022/01/23 06:34:38;;;;;;;1.20;1.20;;;;;;;;;;6209006;23;20016;-39
2022/01/23 06:37:04;;;;;;;1.30;1.30;;;;;;;;;;6208300;23;20100;-41
2022/01/23 06:39:31;;;;;;;1.50;1.27;;;;;;;;;;6208542;23;21095;-41
2022/01/23 06:41:56;;;;;;;0.90;0.90;;;;;;;;;;6208348;23;20442;-39
2022/01/23 06:44:22;;;;;;;1.60;1.50;;;;;;;;;;6181294;23;20032;-39
2022/01/23 06:46:48;;;;;;;1.23;1.23;;;;;;;;;;6207811;23;20540;-39
2022/01/23 06:49:13;;;;;;;1.58;1.45;;;;;;;;;;6207781;23;20016;-39
2022/01/23 06:51:39;;;;;;;1.45;1.20;;;;;;;;;;6207463;23;20036;-39
2022/01/23 06:54:04;;;;;;;1.20;1.20;;;;;;;;;;6208167;23;20091;-39
2022/01/23 06:56:30;;;;;;;1.30;1.30;;;;;;;;;;6207413;23;20012;-39
2022/01/23 06:58:56;;;;;;;1.52;1.38;;;;;;;;;;6208330;23;20016;-39
2022/01/23 07:01:21;;;;;;;1.55;1.45;;;;;;;;;;6206762;23;20713;-41
2022/01/23 07:03:47;;;;;;;1.15;1.15;;;;;;;;;;6208272;23;20119;-41
2022/01/23 07:06:12;;;;;;;1.40;1.30;;;;;;;;;;6206775;23;20030;-40
2022/01/23 07:08:37;;;;;;;1.40;1.40;;;;;;;;;;6208022;23;20354;-39
2022/01/23 07:11:02;;;;;;;1.27;1.20;;;;;;;;;;6207526;23;20008;-39
2022/01/23 07:13:28;;;;;;;1.30;1.20;;;;;;;;;;6207875;23;20017;-40
2022/01/23 07:15:53;;;;;;;1.00;1.00;;;;;;;;;;6207348;23;20017;-39
2022/01/23 07:18:19;;;;;;;1.35;1.25;;;;;;;;;;6207535;23;20363;-39
2022/01/23 07:20:45;;;;;;;1.23;1.13;;;;;;;;;;6207490;23;20058;-39
2022/01/23 07:23:11;;;;;;;1.40;1.30;;;;;;;;;;6207430;23;20013;-39
2022/01/23 07:25:36;;;;;;;1.02;1.02;;;;;;;;;;6206811;23;20487;-40
2022/01/23 07:28:03;;;;;;;1.25;1.25;;;;;;;;;;6207892;23;20004;-39
2022/01/23 07:30:35;;;;;;;1.40;1.30;;;;;;;;;;6207297;23;20059;-39
2022/01/23 07:33:01;;;;;;;1.13;1.13;;;;;;;;;;6207833;23;20008;-39
2022/01/23 07:35:26;;;;;;;1.17;1.17;;;;;;;;;;6206861;23;20475;-39
2022/01/23 07:37:51;;;;;;;1.30;1.30;;;;;;;;;;6208156;23;20374;-43
2022/01/23 07:40:17;;;;;;;1.20;1.20;;;;;;;;;;6207412;23;20008;-40
2022/01/23 07:42:42;;;;;;;1.23;1.15;;;;;;;;;;6208622;23;20009;-40
2022/01/23 07:45:08;;;;;;;1.20;1.20;;;;;;;;;;6207187;23;20109;-39
2022/01/23 07:47:34;;;;;;;1.40;1.40;;;;;;;;;;6180272;23;20019;-39
2022/01/23 07:50:00;;;;;;;1.30;1.30;;;;;;;;;;6206998;23;20071;-39
2022/01/23 07:52:29;;;;;;;2.05;1.52;;;;;;;;;;6207027;23;20012;-39
2022/01/23 07:54:55;;;;;;;1.35;1.35;;;;;;;;;;6207202;23;20036;-39
2022/01/23 07:57:20;;;;;;;1.20;1.20;;;;;;;;;;6206650;23;20025;-39
2022/01/23 07:59:45;;;;;;;1.23;1.23;;;;;;;;;;6206337;23;20030;-40
2022/01/23 08:02:11;;;;;;;1.27;1.27;;;;;;;;;;6206577;23;20036;-38
2022/01/23 08:04:36;;;;;;;1.52;1.42;;;;;;;;;;6206782;23;20035;-39
2022/01/23 08:07:20;;;;;;;1.35;1.30;;;;;;;;;;6207222;23;20329;-39
2022/01/23 08:09:45;;;;;;;1.58;1.50;;;;;;;;;;6206591;23;20151;-39
2022/01/23 08:12:11;;;;;;;1.27;1.25;;;;;;;;;;6207097;23;20043;-39
2022/01/23 08:14:36;;;;;;;1.42;1.42;;;;;;;;;;6207077;23;20008;-39
2022/01/23 08:17:01;;;;;;;1.30;1.30;;;;;;;;;;6207218;23;20012;-39
2022/01/23 08:19:26;;;;;;;1.65;1.55;;;;;;;;;;6205978;23;20023;-39
2022/01/23 08:21:52;;;;;;;1.40;1.30;;;;;;;;;;6207691;23;20008;-39
2022/01/23 08:24:17;;;;;;;1.55;1.40;;;;;;;;;;6206001;23;20028;-39
2022/01/23 08:26:42;;;;;;;1.50;1.40;;;;;;;;;;6207139;23;20079;-39
2022/01/23 08:29:09;;;;;;;1.10;1.10;;;;;;;;;;6206494;23;20476;-39
2022/01/23 08:31:34;;;;;;;1.50;1.40;;;;;;;;;;6206918;23;20020;-40
2022/01/23 08:34:00;;;;;;;1.23;1.13;;;;;;;;;;6206850;23;20318;-39
2022/01/23 08:36:26;;;;;;;1.25;1.20;;;;;;;;;;6206793;23;20021;-39
2022/01/23 08:38:51;;;;;;;1.60;1.50;;;;;;;;;;6207179;23;20824;-39
2022/01/23 08:43:46;;;;;;;1.27;1.17;;;;;;;;;;6206661;23;20446;-39
2022/01/23 08:46:11;;;;;;;1.40;1.30;;;;;;;;;;6206421;23;20496;-40
2022/01/23 08:48:36;;;;;;;1.30;1.30;;;;;;;;;;6206531;23;20052;-39
2022/01/23 08:51:02;;;;;;;1.10;1.10;;;;;;;;;;6207258;23;20022;-39
2022/01/23 08:53:27;;;;;;;1.48;1.38;;;;;;;;;;6206174;23;20019;-39
2022/01/23 08:55:52;;;;;;;1.25;1.23;;;;;;;;;;6206416;23;20009;-39
2022/01/23 08:58:18;;;;;;;1.25;1.20;;;;;;;;;;6205925;23;20596;-40
2022/01/23 09:00:43;;;;;;;1.17;1.17;;;;;;;;;;6206637;23;20005;-40
2022/01/23 09:03:08;;;;;;;1.60;1.50;;;;;;;;;;6206532;23;20609;-39
2022/01/23 09:05:34;;;;;;;1.15;1.15;;;;;;;;;;6206473;23;20016;-39
2022/01/23 09:07:59;;;;;;;1.40;1.30;;;;;;;;;;6206778;23;20032;-39
2022/01/23 09:10:29;;;;;;;1.20;1.20;;;;;;;;;;6206307;23;20036;-39
2022/01/23 09:13:09;;;;;;;0.98;0.98;;;;;;;;;;6206222;23;20016;-39
2022/01/23 09:15:34;;;;;;;;;;;;;;;;;;6206790;23;20026;-40
2022/01/23 09:18:00;;;;;;;1.30;1.30;;;;;;;;;;6206872;23;19908;-39
2022/01/23 09:20:25;;;;;;;1.00;1.00;;;;;;;;;;6205971;23;20564;-39
2022/01/23 09:22:50;;;;;;;1.27;1.20;;;;;;;;;;6206360;23;20009;-40
2022/01/23 09:25:16;;;;;;;0.98;0.98;;;;;;;;;;6206328;23;20021;-39
2022/01/23 09:27:41;;;;;;;1.42;1.33;;;;;;;;;;6205799;23;20008;-39
2022/01/23 09:30:16;;;;;;;1.50;1.40;;;;;;;;;;6206345;23;20012;-39
2022/01/23 09:32:43;;;;;;;1.40;1.30;;;;;;;;;;6205629;23;20032;-40
2022/01/23 09:35:08;;;;;;;1.70;1.60;;;;;;;;;;6206788;23;20013;-40
2022/01/23 09:37:33;;;;;;;1.10;1.10;;;;;;;;;;6205435;23;20062;-39
2022/01/23 09:40:00;;;;;;;1.00;1.00;;;;;;;;;;6206497;23;20008;-39
2022/01/23 09:42:41;;;;;;;1.27;1.27;;;;;;;;;;6205414;23;20305;-39
2022/01/23 09:45:09;;;;;;;1.20;1.20;;;;;;;;;;6206928;23;20027;-39
2022/01/23 09:47:35;;;;;;;1.63;1.52;;;;;;;;;;6205217;23;20019;-40
2022/01/23 09:50:03;;;;;;;1.17;1.10;;;;;;;;;;6204812;23;20016;-40
2022/01/23 09:52:34;;;;;;;1.25;1.20;;;;;;;;;;6205345;23;20466;-39
2022/01/23 09:55:07;;;;;;;1.73;1.63;;;;;;;;;;6208535;23;20635;-39
2022/01/23 09:57:34;;;;;;;1.40;1.40;;;;;;;;;;6207813;23;20871;-39
2022/01/23 10:00:00;;;;;;;1.60;1.50;;;;;;;;;;6208826;23;20083;-40
2022/01/23 10:02:26;;;;;;;1.60;1.50;;;;;;;;;;6207818;23;20055;-39
2022/01/23 10:04:52;;;;;;;1.65;1.55;;;;;;;;;;6208685;23;20134;-39
2022/01/23 10:07:18;;;;;;;1.83;1.73;;;;;;;;;;6207926;23;20015;-39
2022/01/23 10:09:44;;;;;;;1.70;1.60;;;;;;;;;;6208236;23;20325;-39
2022/01/23 10:12:11;;;;;;;1.70;1.60;;;;;;;;;;6209005;23;20027;-38
2022/01/23 10:14:37;;;;;;;1.60;1.50;;;;;;;;;;6208033;23;20013;-39
2022/01/23 10:17:04;;;;;;;1.48;1.48;;;;;;;;;;6207243;23;20011;-40
2022/01/23 10:19:30;;;;;;;1.42;1.40;;;;;;;;;;6207967;23;20095;-39
2022/01/23 10:21:55;;;;;;;1.80;1.70;;;;;;;;;;6206119;23;20004;-41
2022/01/23 10:24:21;;;;;;;1.60;1.50;;;;;;;;;;6208115;23;20076;-38
2022/01/23 10:26:53;;;;;;;1.42;1.20;;;;;;;;;;6207958;23;20454;-38
2022/01/23 10:29:18;;;;;;;1.80;1.70;;;;;;;;;;6208000;23;20051;-38
2022/01/23 10:32:21;;;;;;;1.73;1.63;;;;;;;;;;6208495;23;20017;-40
2022/01/23 10:34:49;;;;;;;1.70;1.60;;;;;;;;;;6109551;23;20018;-40
2022/01/23 10:37:33;;;;;;;1.80;1.70;;;;;;;;;;6164074;23;20451;-39
2022/01/23 10:40:00;;;;;;;1.60;1.60;;;;;;;;;;6202804;23;20005;-39
2022/01/23 10:48:01;;;;;;;2.22;2.10;;;;;;;;;;6188640;23;20007;-39
2022/01/23 10:50:26;;;;;;;2.38;2.28;;;;;;;;;;6207906;23;20028;-39
2022/01/23 10:52:53;;;;;;;2.88;2.67;;;;;;;;;;6201237;23;20342;-39
2022/01/23 10:55:25;;;;;;;2.40;2.30;;;;;;;;;;6202456;23;21005;-40
2022/01/23 10:57:53;;;;;;;2.70;2.60;;;;;;;;;;6205603;23;20422;-39
2022/01/23 11:00:21;;;;;;;2.58;2.38;;;;;;;;;;6204981;23;20009;-40
2022/01/23 11:02:47;;;;;;;2.10;2.00;;;;;;;;;;6205147;23;20838;-38
2022/01/23 11:05:14;;;;;;;2.78;2.30;;;;;;;;;;6204620;23;20025;-39
2022/01/23 11:07:41;;;;;;;2.42;2.33;;;;;;;;;;6204887;23;20019;-39
2022/01/23 11:10:06;;;;;;;2.67;2.58;;;;;;;;;;6205436;23;20009;-39
2022/01/23 11:17:53;;;;;;;2.78;2.67;;;;;;;;;;6204729;23;20012;-39
2022/01/23 11:20:37;;;;;;;2.95;2.85;;;;;;;;;;6204534;23;20349;-39
2022/01/23 11:23:12;;;;;;;3.15;2.95;;;;;;;;;;6205371;23;20013;-40
2022/01/23 11:25:42;;;;;;;2.90;2.72;;;;;;;;;;6178459;23;20095;-39
2022/01/23 11:28:08;;;;;;;3.15;2.95;;;;;;;;;;6191680;23;20009;-39
2022/01/23 11:30:39;;;;;;;3.05;2.95;;;;;;;;;;6205017;23;20319;-39
2022/01/23 11:33:06;;;;;;;3.20;3.00;;;;;;;;;;6206615;23;20005;-39
2022/01/23 11:35:31;;;;;;;3.08;2.88;;;;;;;;;;6206144;23;20088;-39
2022/01/23 11:37:57;;;;;;;3.15;2.95;;;;;;;;;;6206762;23;20099;-39
2022/01/23 11:53:59;;;;;;;3.33;3.13;;;;;;;;;;6187139;23;20338;-39
2022/01/23 11:56:47;;;;;;;3.50;3.28;;;;;;;;;;6180845;23;20024;-39
2022/01/23 11:59:16;;;;;;;3.25;3.05;;;;;;;;;;6206494;23;20013;-39
2022/01/23 12:01:42;;;;;;;3.40;3.20;;;;;;;;;;6207395;23;20019;-40
2022/01/23 12:04:08;;;;;;;3.75;3.53;;;;;;;;;;6207030;23;20103;-39
2022/01/23 12:06:35;;;;;;;3.92;3.72;;;;;;;;;;6206774;23;20016;-40
2022/01/23 12:09:09;;;;;;;3.63;3.42;;;;;;;;;;6208342;23;20393;-40
2022/01/23 12:16:21;;;;;;;3.53;3.30;;;;;;;;;;6208059;23;20005;-39
2022/01/23 12:17:02;;;;;;;3.55;3.35;;;;;;;;;;6207194;23;20008;-39
2022/01/23 12:19:29;;;;;;;4.40;4.10;;;;;;;;;;6206639;23;20013;-40
2022/01/23 12:21:55;;;;;;;4.10;3.80;;;;;;;;;;6207797;23;20080;-42
2022/01/23 12:24:22;;;;;;;3.70;3.50;;;;;;;;;;6206404;23;20016;-41
2022/01/23 12:26:48;;;;;;;3.90;3.60;;;;;;;;;;6207384;23;20347;-40
2022/01/23 12:29:14;;;;;;;3.83;3.63;;;;;;;;;;6206317;23;20016;-40
2022/01/23 12:31:40;;;;;;;3.83;3.63;;;;;;;;;;6207172;23;20008;-40
2022/01/23 12:34:06;;;;;;;4.15;3.85;;;;;;;;;;6206722;23;20124;-40
2022/01/23 12:36:32;;;;;;;3.92;3.67;;;;;;;;;;6206612;23;20032;-40
2022/01/23 12:39:07;;;;;;;3.60;3.40;;;;;;;;;;6206800;23;20080;-39
2022/01/23 12:41:36;;;;;;;3.72;3.53;;;;;;;;;;6206634;23;20397;-39
2022/01/23 12:44:09;;;;;;;3.55;3.25;;;;;;;;;;6180255;23;20394;-39
2022/01/23 12:46:38;;;;;;;3.78;3.58;;;;;;;;;;6206329;23;20012;-40
2022/01/23 12:49:21;;;;;;;3.60;3.40;;;;;;;;;;6207414;23;20015;-39
2022/01/23 12:51:47;;;;;;;3.80;3.50;;;;;;;;;;6205557;23;20016;-40
2022/01/23 12:54:17;;;;;;;3.47;3.28;;;;;;;;;;6206509;23;20032;-40
2022/01/23 12:56:44;;;;;;;3.30;3.10;;;;;;;;;;6206256;23;20354;-39
2022/01/23 12:59:13;;;;;;;3.63;3.42;;;;;;;;;;6206941;23;20021;-40
2022/01/23 13:01:42;;;;;;;3.30;3.10;;;;;;;;;;6206989;23;20016;-40
2022/01/23 13:04:08;;;;;;;3.42;3.22;;;;;;;;;;6207035;23;20074;-39
2022/01/23 13:06:35;;;;;;;3.85;3.65;;;;;;;;;;6205976;23;20335;-40
2022/01/23 13:09:17;;;;;;;3.35;3.15;;;;;;;;;;6206670;23;20473;-40
2022/01/23 13:12:06;;;;;;;2.92;2.80;;;;;;;;;;6206884;23;20013;-41
2022/01/23 13:14:39;;;;;;;3.50;3.30;;;;;;;;;;6205916;23;20008;-41
2022/01/23 13:30:31;;;;;;;3.53;3.33;;;;;;;;;;6204138;23;20120;-39
2022/01/23 13:33:03;;;;;;;3.30;3.10;;;;;;;;;;6208637;23;20438;-39
2022/01/23 13:35:34;;;;;;;3.22;3.03;;;;;;;;;;6206533;23;20488;-40
2022/01/23 13:38:02;;;;;;;3.38;2.80;;;;;;;;;;6208745;23;20005;-39
2022/01/23 13:40:39;;;;;;;3.17;2.97;;;;;;;;;;6206491;23;20039;-40
2022/01/23 13:53:38;;;;;;;2.85;2.65;;;;;;;;;;6207717;23;20008;-40
2022/01/23 14:02:08;;;;;;;3.00;2.80;;;;;;;;;;6211594;23;20009;-40
2022/01/23 14:04:38;;;;;;;3.15;2.95;;;;;;;;;;6203839;23;20024;-39
2022/01/23 14:07:03;;;;;;;3.15;2.95;;;;;;;;;;6206100;23;20040;-40
2022/01/23 14:09:28;;;;;;;3.55;3.35;;;;;;;;;;6205414;23;20319;-40
2022/01/23 14:11:54;;;;;;;3.42;3.22;;;;;;;;;;6206735;23;20009;-39
2022/01/23 14:14:24;;;;;;;3.50;3.30;;;;;;;;;;6204899;23;20368;-40
2022/01/23 14:16:49;;;;;;;;;;;;;;;;;;6206970;23;20353;-44
2022/01/23 14:19:14;;;;;;;3.38;3.17;;;;;;;;;;6204944;23;20249;-40
2022/01/23 14:21:40;;;;;;;3.88;3.67;;;;;;;;;;6206552;23;20091;-40
2022/01/23 14:24:06;;;;;;;3.22;3.03;;;;;;;;;;6205661;23;20127;-40
2022/01/23 14:26:31;;;;;;;3.30;3.10;;;;;;;;;;6205672;23;20039;-39
2022/01/23 14:29:02;;;;;;;3.63;3.42;;;;;;;;;;6204961;23;20005;-40
2022/01/23 14:31:35;;;;;;;3.70;3.45;;;;;;;;;;6202979;23;20020;-39
2022/01/23 14:34:03;;;;;;;3.63;3.42;;;;;;;;;;6203771;23;20012;-40
2022/01/23 14:36:34;;;;;;;3.85;3.65;;;;;;;;;;6204401;23;20484;-39
2022/01/23 14:39:05;;;;;;;3.72;3.53;;;;;;;;;;6203726;23;20005;-40
2022/01/23 14:41:31;;;;;;;4.10;3.80;;;;;;;;;;6178715;23;20013;-40
2022/01/23 14:43:57;;;;;;;4.00;3.80;;;;;;;;;;6206138;23;20009;-40
2022/01/23 14:46:22;;;;;;;4.28;4.07;;;;;;;;;;6206905;23;20008;-40
2022/01/23 14:48:50;;;;;;;3.80;3.60;;;;;;;;;;6207296;23;20030;-40
2022/01/23 14:51:20;;;;;;;4.22;4.00;;;;;;;;;;6207361;23;20659;-40
2022/01/23 14:53:45;;;;;;;3.75;3.55;;;;;;;;;;6207750;23;20039;-39
2022/01/23 14:56:13;;;;;;;5.40;3.85;;;;;;;;;;6207853;23;20036;-39
2022/01/23 14:58:38;;;;;;;4.32;4.03;;;;;;;;;;6206202;23;20012;-42
2022/01/23 15:01:05;;;;;;;3.85;3.65;;;;;;;;;;6208118;23;20007;-40
2022/01/23 15:03:31;;;;;;;4.88;4.57;;;;;;;;;;6207184;23;20012;-40
2022/01/23 15:05:56;;;;;;;4.85;4.55;;;;;;;;;;6208276;23;20347;-39
2022/01/23 15:08:23;;;;;;;4.78;4.47;;;;;;;;;;6206382;23;20013;-40
2022/01/23 15:10:50;;;;;;;4.63;4.32;;;;;;;;;;6206669;23;20012;-40
2022/01/23 15:13:16;;;;;;;4.82;4.53;;;;;;;;;;6206416;23;20013;-40
2022/01/23 15:15:41;;;;;;;4.50;4.20;;;;;;;;;;6207507;23;20016;-40
2022/01/23 15:18:07;;;;;;;4.85;4.55;;;;;;;;;;6208765;23;20008;-42
2022/01/23 15:20:35;;;;;;;5.10;4.80;;;;;;;;;;6207619;23;20004;-40
2022/01/23 15:23:00;;;;;;;5.13;4.63;;;;;;;;;;6207172;23;20091;-39
2022/01/23 15:25:25;;;;;;;4.82;4.53;;;;;;;;;;6206307;23;20496;-40
2022/01/23 15:27:51;;;;;;;4.97;4.68;;;;;;;;;;6206681;23;20009;-40
2022/01/23 15:30:16;;;;;;;4.70;4.40;;;;;;;;;;6205786;23;20016;-39
2022/01/23 15:32:45;;;;;;;5.38;4.97;;;;;;;;;;6206672;23;20031;-39
2022/01/23 15:35:11;;;;;;;5.50;5.20;;;;;;;;;;6206280;23;20017;-39
2022/01/23 15:37:37;;;;;;;4.97;4.68;;;;;;;;;;6206964;23;20034;-39
2022/01/23 15:40:03;;;;;;;4.82;4.43;;;;;;;;;;6206294;23;20009;-42
2022/01/23 15:42:28;;;;;;;5.07;4.78;;;;;;;;;;6205699;23;20023;-39
2022/01/23 15:44:53;;;;;;;4.80;4.50;;;;;;;;;;6207187;23;20017;-41
2022/01/23 15:47:19;;;;;;;5.00;4.70;;;;;;;;;;6207287;23;20023;-39
2022/01/23 15:49:44;;;;;;;5.32;4.93;;;;;;;;;;6206646;23;20009;-39
2022/01/23 15:52:10;;;;;;;4.88;4.57;;;;;;;;;;6207317;23;20060;-39
2022/01/23 15:54:36;;;;;;;4.72;4.43;;;;;;;;;;6206808;23;20008;-41
2022/01/23 15:57:03;;;;;;;5.30;4.93;;;;;;;;;;6207386;23;20004;-39
2022/01/23 15:59:28;;;;;;;4.78;4.47;;;;;;;;;;6205906;23;20016;-39
2022/01/23 16:01:53;;;;;;;5.35;5.00;;;;;;;;;;6206854;23;20032;-40
2022/01/23 16:04:20;;;;;;;5.15;4.75;;;;;;;;;;6206456;23;20020;-40
2022/01/23 16:06:45;;;;;;;5.60;5.20;;;;;;;;;;6207766;23;20027;-39
2022/01/23 16:09:10;;;;;;;5.43;5.05;;;;;;;;;;6205838;23;20083;-40
2022/01/23 16:11:36;;;;;;;5.10;4.80;;;;;;;;;;6207415;23;20035;-42
2022/01/23 16:14:01;;;;;;;4.97;4.68;;;;;;;;;;6207074;23;20016;-40
2022/01/23 16:16:27;;;;;;;6.15;5.75;;;;;;;;;;6207504;23;20430;-39
2022/01/23 16:18:52;;;;;;;4.78;4.47;;;;;;;;;;6207341;23;20013;-40
2022/01/23 16:21:19;;;;;;;5.32;5.03;;;;;;;;;;6207169;23;20009;-40
2022/01/23 16:23:44;;;;;;;5.32;4.93;;;;;;;;;;6207968;23;20088;-40
2022/01/23 16:26:10;;;;;;;5.07;4.78;;;;;;;;;;6207035;23;20052;-39
2022/01/23 16:28:35;;;;;;;5.00;4.60;;;;;;;;;;6207104;23;20016;-40
2022/01/23 16:31:01;;;;;;;5.60;5.20;;;;;;;;;;6206590;23;20008;-40
2022/01/23 16:33:28;;;;;;;5.13;4.80;;;;;;;;;;6202644;23;20012;-39
2022/01/23 16:35:54;;;;;;;6.05;5.60;;;;;;;;;;6206646;23;20013;-40
2022/01/23 16:38:19;;;;;;;5.40;5.00;;;;;;;;;;6205014;23;20020;-42
2022/01/23 16:40:45;;;;;;;5.93;5.50;;;;;;;;;;6206953;23;20031;-39
2022/01/23 16:43:11;;;;;;;5.57;5.18;;;;;;;;;;6206730;23;20028;-41
2022/01/23 16:45:37;;;;;;;6.15;5.70;;;;;;;;;;6208547;23;20012;-39
2022/01/23 16:48:03;;;;;;;6.65;6.20;;;;;;;;;;6206933;23;20630;-39
2022/01/23 16:50:28;;;;;;;6.55;6.05;;;;;;;;;;6205914;23;20410;-39
2022/01/23 16:52:54;;;;;;;5.38;4.97;;;;;;;;;;6207141;23;20055;-39
2022/01/23 16:55:19;;;;;;;5.68;5.28;;;;;;;;;;6205657;23;20020;-39
2022/01/23 16:57:45;;;;;;;6.30;5.80;;;;;;;;;;6205824;23;20038;-39
2022/01/23 17:00:11;;;;;;;5.30;4.90;;;;;;;;;;6205057;23;20016;-39
2022/01/23 17:02:37;;;;;;;5.95;5.45;;;;;;;;;;6200160;23;20446;-39
2022/01/23 17:05:02;;;;;;;5.70;5.30;;;;;;;;;;6202688;23;20024;-39
2022/01/23 17:07:27;;;;;;;6.28;5.78;;;;;;;;;;6201472;23;20019;-39
2022/01/23 17:09:53;;;;;;;5.80;5.40;;;;;;;;;;6202821;23;20013;-39
2022/01/23 17:12:18;;;;;;;5.63;5.22;;;;;;;;;;6202312;23;20013;-39
2022/01/23 17:14:43;;;;;;;5.57;5.18;;;;;;;;;;6202973;23;20026;-40
2022/01/23 17:17:08;;;;;;;5.25;4.93;;;;;;;;;;6202905;23;20004;-39
2022/01/23 17:19:34;;;;;;;5.13;4.82;;;;;;;;;;6202531;23;20017;-39
2022/01/23 17:21:59;;;;;;;6.13;5.72;;;;;;;;;;6202971;23;20009;-39
2022/01/23 17:24:24;;;;;;;6.10;5.60;;;;;;;;;;6201626;23;20013;-39
2022/01/23 17:26:50;;;;;;;5.82;5.43;;;;;;;;;;6203609;23;20705;-39
2022/01/23 17:29:15;;;;;;;6.00;5.60;;;;;;;;;;6201918;23;20021;-40
2022/01/23 17:31:41;;;;;;;6.38;5.88;;;;;;;;;;6201685;23;20024;-39
2022/01/23 17:34:06;;;;;;;4.78;4.47;;;;;;;;;;6202961;23;20016;-39
2022/01/23 17:36:32;;;;;;;5.80;5.40;;;;;;;;;;6202897;23;20143;-39
2022/01/23 17:38:58;;;;;;;5.40;5.03;;;;;;;;;;6202255;23;20004;-39
2022/01/23 17:41:23;;;;;;;6.47;6.07;;;;;;;;;;6202108;23;20119;-39
2022/01/23 17:43:49;;;;;;;5.35;4.95;;;;;;;;;;6202800;23;20091;-41
2022/01/23 17:46:21;;;;;;;5.80;5.40;;;;;;;;;;6202285;23;20334;-39
2022/01/23 17:48:50;;;;;;;5.60;5.20;;;;;;;;;;6202538;23;20092;-39
2022/01/23 17:51:16;;;;;;;6.18;5.68;;;;;;;;;;6201222;23;20050;-39
2022/01/23 17:53:45;;;;;;;5.85;5.45;;;;;;;;;;6203129;23;20013;-39
2022/01/23 17:56:10;;;;;;;5.85;5.45;;;;;;;;;;6201931;23;20129;-40
2022/01/23 17:58:36;;;;;;;5.30;4.90;;;;;;;;;;6176561;23;20417;-39
2022/01/23 18:01:01;;;;;;;5.45;5.05;;;;;;;;;;6202126;23;20091;-40
2022/01/23 18:03:28;;;;;;;6.18;5.78;;;;;;;;;;6202560;23;20443;-39